DAL5455 KJFK-KIAD
Flight info
| Callsign | DAL5455 |
|---|---|
| Flight time | 0h 53m |
| Altitude | 16000 |
| Route | DIXIE T303 LEEAH T315 SHLBK/N0341F100 T315 TAPPA THHMP CAVLR6 |
| Aircraft | A332/H-SDE3GHIJ2J3J5M1RVWXY/LB2D1 |
Departure
| Time | 2026-04-30 21:07 |
|---|---|
| Airport | John F. Kennedy International Airport (KJFK) |
Arrival
| Time | 2026-04-30 22:00 |
|---|---|
| Airport | Washington Dulles International Airport (KIAD) |
| Time | Latitude | Longitude | Altitude | Speed | Heading |
|---|---|---|---|---|---|
| 2026-04-30 20:12 | 40.64648 | -73.77447 | 25 ft | 0 kts | 192° |
| 2026-04-30 20:14 | 40.64722 | -73.77598 | 28 ft | 0 kts | 206° |
| 2026-04-30 20:43 | 40.64724 | -73.77597 | 24 ft | 1 kts | 207° |
| 2026-04-30 20:44 | 40.64750 | -73.77565 | 30 ft | 3 kts | 254° |
| 2026-04-30 20:44 | 40.64752 | -73.77541 | 30 ft | 3 kts | 288° |
| 2026-04-30 20:44 | 40.64748 | -73.77529 | 30 ft | 5 kts | 301° |
| 2026-04-30 20:58 | 40.64749 | -73.77530 | 24 ft | 1 kts | 301° |
| 2026-04-30 20:58 | 40.64755 | -73.77540 | 24 ft | 2 kts | 310° |
| 2026-04-30 20:58 | 40.64768 | -73.77550 | 28 ft | 2 kts | 339° |
| 2026-04-30 20:59 | 40.64813 | -73.77582 | 26 ft | 8 kts | 313° |
| 2026-04-30 20:59 | 40.64868 | -73.77582 | 27 ft | 9 kts | 30° |
| 2026-04-30 21:00 | 40.64966 | -73.77476 | 24 ft | 0 kts | 40° |
| 2026-04-30 21:01 | 40.65016 | -73.77435 | 27 ft | 8 kts | 24° |
| 2026-04-30 21:01 | 40.65069 | -73.77411 | 28 ft | 9 kts | 17° |
| 2026-04-30 21:01 | 40.65126 | -73.77305 | 34 ft | 7 kts | 121° |
| 2026-04-30 21:02 | 40.65091 | -73.77228 | 30 ft | 13 kts | 121° |
| 2026-04-30 21:02 | 40.65036 | -73.77108 | 30 ft | 17 kts | 121° |
| 2026-04-30 21:02 | 40.64967 | -73.76955 | 30 ft | 20 kts | 121° |
| 2026-04-30 21:02 | 40.64913 | -73.76835 | 30 ft | 17 kts | 121° |
| 2026-04-30 21:03 | 40.64862 | -73.76715 | 28 ft | 7 kts | 104° |
| 2026-04-30 21:03 | 40.64870 | -73.76699 | 29 ft | 1 kts | 33° |
| 2026-04-30 21:03 | 40.64899 | -73.76681 | 29 ft | 8 kts | 27° |
| 2026-04-30 21:03 | 40.64967 | -73.76629 | 26 ft | 15 kts | 31° |
| 2026-04-30 21:04 | 40.65073 | -73.76546 | 30 ft | 18 kts | 30° |
| 2026-04-30 21:04 | 40.65095 | -73.76458 | 28 ft | 7 kts | 111° |
| 2026-04-30 21:04 | 40.65090 | -73.76446 | 30 ft | 0 kts | 120° |
| 2026-04-30 21:05 | 40.65082 | -73.76429 | 32 ft | 5 kts | 121° |
| 2026-04-30 21:05 | 40.65055 | -73.76381 | 26 ft | 8 kts | 135° |
| 2026-04-30 21:05 | 40.65007 | -73.76371 | 29 ft | 7 kts | 195° |
| 2026-04-30 21:05 | 40.64972 | -73.76394 | 29 ft | 0 kts | 211° |
| 2026-04-30 21:06 | 40.64961 | -73.76403 | 27 ft | 7 kts | 211° |
| 2026-04-30 21:06 | 40.64721 | -73.76591 | 30 ft | 72 kts | 211° |
| 2026-04-30 21:06 | 40.64127 | -73.77055 | 30 ft | 124 kts | 211° |
| 2026-04-30 21:06 | 40.63277 | -73.77725 | 249 ft | 148 kts | 211° |
| 2026-04-30 21:07 | 40.62389 | -73.78410 | 911 ft | 149 kts | 212° |
| 2026-04-30 21:07 | 40.61494 | -73.79131 | 1484 ft | 156 kts | 215° |
| 2026-04-30 21:07 | 40.60520 | -73.79920 | 1871 ft | 172 kts | 213° |
| 2026-04-30 21:07 | 40.59457 | -73.80776 | 2266 ft | 187 kts | 214° |
| 2026-04-30 21:08 | 40.58317 | -73.81700 | 2662 ft | 202 kts | 214° |
| 2026-04-30 21:08 | 40.57040 | -73.82728 | 2953 ft | 226 kts | 214° |
| 2026-04-30 21:08 | 40.55621 | -73.83864 | 3290 ft | 249 kts | 213° |
| 2026-04-30 21:08 | 40.54106 | -73.85069 | 4001 ft | 257 kts | 213° |
| 2026-04-30 21:09 | 40.52566 | -73.86291 | 4673 ft | 261 kts | 214° |
| 2026-04-30 21:09 | 40.51029 | -73.87512 | 4964 ft | 262 kts | 214° |
| 2026-04-30 21:09 | 40.49449 | -73.88766 | 5024 ft | 263 kts | 214° |
| 2026-04-30 21:09 | 40.47885 | -73.90009 | 5014 ft | 263 kts | 214° |
| 2026-04-30 21:10 | 40.46338 | -73.91238 | 5015 ft | 263 kts | 214° |
| 2026-04-30 21:10 | 40.44911 | -73.92708 | 5108 ft | 260 kts | 229° |
| 2026-04-30 21:10 | 40.43828 | -73.94595 | 5667 ft | 260 kts | 239° |
| 2026-04-30 21:10 | 40.42886 | -73.96613 | 6660 ft | 257 kts | 241° |
| 2026-04-30 21:11 | 40.41993 | -73.98632 | 7652 ft | 256 kts | 242° |
| 2026-04-30 21:11 | 40.41108 | -74.00676 | 8539 ft | 260 kts | 242° |
| 2026-04-30 21:11 | 40.40216 | -74.02762 | 9412 ft | 264 kts | 242° |
| 2026-04-30 21:11 | 40.39314 | -74.04878 | 10235 ft | 269 kts | 242° |
| 2026-04-30 21:12 | 40.38380 | -74.07077 | 10673 ft | 287 kts | 242° |
| 2026-04-30 21:12 | 40.37374 | -74.09447 | 11008 ft | 308 kts | 242° |
| 2026-04-30 21:12 | 40.36304 | -74.11962 | 11464 ft | 322 kts | 242° |
| 2026-04-30 21:12 | 40.35204 | -74.14546 | 12161 ft | 327 kts | 242° |
| 2026-04-30 21:13 | 40.34091 | -74.17155 | 12957 ft | 329 kts | 242° |
| 2026-04-30 21:13 | 40.32968 | -74.19788 | 13720 ft | 332 kts | 242° |
| 2026-04-30 21:13 | 40.31839 | -74.22435 | 14427 ft | 334 kts | 242° |
| 2026-04-30 21:13 | 40.30704 | -74.25091 | 15152 ft | 334 kts | 242° |
| 2026-04-30 21:14 | 40.29568 | -74.27751 | 15880 ft | 335 kts | 242° |
| 2026-04-30 21:14 | 40.28429 | -74.30414 | 16572 ft | 336 kts | 242° |
| 2026-04-30 21:14 | 40.27283 | -74.33092 | 17245 ft | 337 kts | 242° |
| 2026-04-30 21:14 | 40.26136 | -74.35768 | 17962 ft | 338 kts | 242° |
| 2026-04-30 21:15 | 40.24980 | -74.38466 | 18537 ft | 341 kts | 242° |
| 2026-04-30 21:15 | 40.23815 | -74.41181 | 19058 ft | 344 kts | 242° |
| 2026-04-30 21:15 | 40.22640 | -74.43927 | 19609 ft | 347 kts | 242° |
| 2026-04-30 21:15 | 40.21625 | -74.46790 | 20159 ft | 348 kts | 250° |
| 2026-04-30 21:16 | 40.21022 | -74.49874 | 20690 ft | 352 kts | 260° |
| 2026-04-30 21:16 | 40.20924 | -74.53087 | 21209 ft | 358 kts | 270° |
| 2026-04-30 21:16 | 40.21280 | -74.56332 | 21665 ft | 363 kts | 277° |
| 2026-04-30 21:16 | 40.21798 | -74.59576 | 21823 ft | 365 kts | 278° |
| 2026-04-30 21:17 | 40.22341 | -74.62826 | 21833 ft | 365 kts | 278° |
| 2026-04-30 21:17 | 40.22878 | -74.66077 | 21833 ft | 366 kts | 278° |
| 2026-04-30 21:17 | 40.23409 | -74.69332 | 21832 ft | 366 kts | 277° |
| 2026-04-30 21:17 | 40.23934 | -74.72589 | 21831 ft | 366 kts | 277° |
| 2026-04-30 21:18 | 40.24456 | -74.75853 | 21833 ft | 366 kts | 277° |
| 2026-04-30 21:18 | 40.24974 | -74.79109 | 21833 ft | 366 kts | 277° |
| 2026-04-30 21:18 | 40.25492 | -74.82372 | 21832 ft | 366 kts | 277° |
| 2026-04-30 21:18 | 40.26008 | -74.85637 | 21830 ft | 366 kts | 277° |
| 2026-04-30 21:19 | 40.26523 | -74.88896 | 21830 ft | 366 kts | 277° |
| 2026-04-30 21:19 | 40.27051 | -74.92159 | 21834 ft | 366 kts | 278° |
| 2026-04-30 21:19 | 40.27585 | -74.95419 | 21833 ft | 366 kts | 278° |
| 2026-04-30 21:19 | 40.28120 | -74.98683 | 21832 ft | 367 kts | 278° |
| 2026-04-30 21:20 | 40.28655 | -75.01949 | 21839 ft | 366 kts | 278° |
| 2026-04-30 21:20 | 40.29187 | -75.05205 | 21838 ft | 366 kts | 278° |
| 2026-04-30 21:20 | 40.29719 | -75.08470 | 21848 ft | 366 kts | 278° |
| 2026-04-30 21:20 | 40.30249 | -75.11727 | 21842 ft | 365 kts | 278° |
| 2026-04-30 21:21 | 40.30777 | -75.14983 | 21841 ft | 365 kts | 277° |
| 2026-04-30 21:21 | 40.31304 | -75.18235 | 21841 ft | 365 kts | 278° |
| 2026-04-30 21:21 | 40.32355 | -75.24736 | 21851 ft | 365 kts | 277° |
| 2026-04-30 21:22 | 40.32879 | -75.27991 | 21859 ft | 365 kts | 277° |
| 2026-04-30 21:22 | 40.34445 | -75.37751 | 21861 ft | 365 kts | 277° |
| 2026-04-30 21:23 | 40.34967 | -75.41010 | 21853 ft | 365 kts | 277° |
| 2026-04-30 21:23 | 40.35485 | -75.44259 | 21861 ft | 365 kts | 277° |
| 2026-04-30 21:23 | 40.36520 | -75.50758 | 21851 ft | 364 kts | 277° |
| 2026-04-30 21:24 | 40.36994 | -75.53966 | 21851 ft | 362 kts | 275° |
| 2026-04-30 21:24 | 40.37251 | -75.57234 | 21854 ft | 359 kts | 269° |
| 2026-04-30 21:24 | 40.37188 | -75.60497 | 21849 ft | 357 kts | 262° |
| 2026-04-30 21:24 | 40.36796 | -75.63698 | 21849 ft | 356 kts | 256° |
| 2026-04-30 21:25 | 40.35085 | -75.69764 | 21851 ft | 355 kts | 245° |
| 2026-04-30 21:25 | 40.33976 | -75.72661 | 21851 ft | 356 kts | 244° |
| 2026-04-30 21:25 | 40.32851 | -75.75550 | 21852 ft | 356 kts | 244° |
| 2026-04-30 21:26 | 40.30604 | -75.81331 | 21853 ft | 356 kts | 244° |
| 2026-04-30 21:26 | 40.29484 | -75.84221 | 21850 ft | 356 kts | 244° |
| 2026-04-30 21:27 | 40.27248 | -75.89995 | 21851 ft | 355 kts | 244° |
| 2026-04-30 21:27 | 40.26131 | -75.92876 | 21839 ft | 355 kts | 244° |
| 2026-04-30 21:27 | 40.25011 | -75.95763 | 21838 ft | 356 kts | 244° |
| 2026-04-30 21:28 | 40.22771 | -76.01531 | 21722 ft | 355 kts | 244° |
| 2026-04-30 21:28 | 40.21655 | -76.04403 | 21458 ft | 353 kts | 244° |
| 2026-04-30 21:28 | 40.19432 | -76.10109 | 20961 ft | 351 kts | 244° |
| 2026-04-30 21:29 | 40.18326 | -76.12946 | 20699 ft | 350 kts | 244° |
| 2026-04-30 21:29 | 40.15022 | -76.21402 | 19977 ft | 347 kts | 244° |
| 2026-04-30 21:30 | 40.12833 | -76.26992 | 19483 ft | 345 kts | 244° |
| 2026-04-30 21:31 | 40.09250 | -76.35107 | 18733 ft | 342 kts | 241° |
| 2026-04-30 21:31 | 40.06801 | -76.40403 | 18252 ft | 339 kts | 241° |
| 2026-04-30 21:32 | 40.04384 | -76.45630 | 17736 ft | 338 kts | 241° |
| 2026-04-30 21:32 | 40.03170 | -76.48253 | 17466 ft | 337 kts | 241° |
| 2026-04-30 21:32 | 40.01958 | -76.50869 | 17218 ft | 337 kts | 241° |
| 2026-04-30 21:32 | 40.00747 | -76.53481 | 16953 ft | 337 kts | 241° |
| 2026-04-30 21:33 | 39.99532 | -76.56099 | 16705 ft | 337 kts | 241° |
| 2026-04-30 21:33 | 39.97101 | -76.61334 | 16183 ft | 336 kts | 241° |
| 2026-04-30 21:33 | 39.95890 | -76.63939 | 15934 ft | 336 kts | 241° |
| 2026-04-30 21:34 | 39.94680 | -76.66538 | 15678 ft | 336 kts | 241° |
| 2026-04-30 21:34 | 39.92265 | -76.71723 | 15182 ft | 334 kts | 240° |
| 2026-04-30 21:34 | 39.91056 | -76.74313 | 14947 ft | 334 kts | 240° |
| 2026-04-30 21:35 | 39.89849 | -76.76899 | 14696 ft | 334 kts | 240° |
| 2026-04-30 21:35 | 39.89037 | -76.78639 | 14531 ft | 334 kts | 240° |
| 2026-04-30 21:35 | 39.87833 | -76.81214 | 14304 ft | 330 kts | 240° |
| 2026-04-30 21:35 | 39.86657 | -76.83723 | 14096 ft | 321 kts | 240° |
| 2026-04-30 21:36 | 39.85488 | -76.86221 | 14011 ft | 327 kts | 240° |
| 2026-04-30 21:36 | 39.84310 | -76.88738 | 13977 ft | 332 kts | 240° |
| 2026-04-30 21:37 | 39.80642 | -76.96554 | 12161 ft | 335 kts | 240° |
| 2026-04-30 21:37 | 39.79443 | -76.99101 | 11797 ft | 326 kts | 240° |
| 2026-04-30 21:37 | 39.78276 | -77.01578 | 11567 ft | 314 kts | 240° |
| 2026-04-30 21:37 | 39.77161 | -77.03941 | 11482 ft | 299 kts | 240° |
| 2026-04-30 21:38 | 39.76098 | -77.06195 | 11373 ft | 286 kts | 240° |
| 2026-04-30 21:38 | 39.75078 | -77.08358 | 11210 ft | 275 kts | 240° |
| 2026-04-30 21:38 | 39.74095 | -77.10439 | 11112 ft | 265 kts | 240° |
| 2026-04-30 21:38 | 39.73150 | -77.12442 | 10993 ft | 256 kts | 240° |
| 2026-04-30 21:39 | 39.72225 | -77.14400 | 10782 ft | 253 kts | 240° |
| 2026-04-30 21:39 | 39.71299 | -77.16360 | 10524 ft | 251 kts | 240° |
| 2026-04-30 21:39 | 39.70403 | -77.18257 | 10310 ft | 249 kts | 240° |
| 2026-04-30 21:39 | 39.69497 | -77.20169 | 10080 ft | 251 kts | 239° |
| 2026-04-30 21:40 | 39.68369 | -77.22036 | 9902 ft | 268 kts | 226° |
| 2026-04-30 21:40 | 39.66785 | -77.23364 | 9681 ft | 276 kts | 210° |
| 2026-04-30 21:40 | 39.65030 | -77.24312 | 9469 ft | 277 kts | 206° |
| 2026-04-30 21:40 | 39.63226 | -77.25201 | 9283 ft | 277 kts | 206° |
| 2026-04-30 21:41 | 39.61427 | -77.26086 | 9081 ft | 276 kts | 206° |
| 2026-04-30 21:41 | 39.59610 | -77.26990 | 8917 ft | 275 kts | 206° |
| 2026-04-30 21:41 | 39.57849 | -77.27873 | 8729 ft | 275 kts | 206° |
| 2026-04-30 21:41 | 39.56068 | -77.28770 | 8544 ft | 275 kts | 206° |
| 2026-04-30 21:42 | 39.54288 | -77.29669 | 8339 ft | 275 kts | 206° |
| 2026-04-30 21:42 | 39.52507 | -77.30569 | 8172 ft | 275 kts | 206° |
| 2026-04-30 21:42 | 39.50724 | -77.31470 | 7974 ft | 274 kts | 206° |
| 2026-04-30 21:42 | 39.48949 | -77.32368 | 7787 ft | 274 kts | 206° |
| 2026-04-30 21:43 | 39.47173 | -77.33266 | 7603 ft | 274 kts | 206° |
| 2026-04-30 21:43 | 39.45399 | -77.34161 | 7409 ft | 273 kts | 206° |
| 2026-04-30 21:43 | 39.43632 | -77.35054 | 7213 ft | 273 kts | 206° |
| 2026-04-30 21:43 | 39.41857 | -77.35919 | 7066 ft | 274 kts | 202° |
| 2026-04-30 21:44 | 39.39960 | -77.36345 | 6804 ft | 280 kts | 187° |
| 2026-04-30 21:44 | 39.38005 | -77.36361 | 6511 ft | 282 kts | 184° |
| 2026-04-30 21:44 | 39.36040 | -77.36298 | 6230 ft | 282 kts | 183° |
| 2026-04-30 21:44 | 39.34088 | -77.36230 | 5973 ft | 280 kts | 183° |
| 2026-04-30 21:45 | 39.32139 | -77.36169 | 5720 ft | 280 kts | 183° |
| 2026-04-30 21:45 | 39.30195 | -77.36115 | 5466 ft | 279 kts | 183° |
| 2026-04-30 21:45 | 39.28251 | -77.36066 | 5216 ft | 279 kts | 182° |
| 2026-04-30 21:45 | 39.26305 | -77.36015 | 5011 ft | 280 kts | 183° |
| 2026-04-30 21:46 | 39.24355 | -77.35966 | 4785 ft | 281 kts | 182° |
| 2026-04-30 21:46 | 39.22407 | -77.35917 | 4585 ft | 280 kts | 182° |
| 2026-04-30 21:46 | 39.20459 | -77.35869 | 4392 ft | 279 kts | 183° |
| 2026-04-30 21:46 | 39.18523 | -77.35820 | 4213 ft | 278 kts | 182° |
| 2026-04-30 21:47 | 39.16597 | -77.35776 | 4041 ft | 276 kts | 184° |
| 2026-04-30 21:47 | 39.14669 | -77.35762 | 3942 ft | 277 kts | 184° |
| 2026-04-30 21:47 | 39.12746 | -77.35752 | 3855 ft | 276 kts | 184° |
| 2026-04-30 21:47 | 39.10822 | -77.35747 | 3803 ft | 277 kts | 184° |
| 2026-04-30 21:48 | 39.08906 | -77.35745 | 3721 ft | 275 kts | 184° |
| 2026-04-30 21:48 | 39.06996 | -77.35739 | 3608 ft | 274 kts | 184° |
| 2026-04-30 21:48 | 39.05089 | -77.35734 | 3548 ft | 275 kts | 184° |
| 2026-04-30 21:48 | 39.03173 | -77.35732 | 3462 ft | 275 kts | 184° |
| 2026-04-30 21:49 | 39.01261 | -77.35727 | 3390 ft | 274 kts | 184° |
| 2026-04-30 21:49 | 38.99351 | -77.35721 | 3299 ft | 274 kts | 184° |
| 2026-04-30 21:49 | 38.97438 | -77.35716 | 3227 ft | 275 kts | 184° |
| 2026-04-30 21:49 | 38.95526 | -77.35714 | 3157 ft | 275 kts | 183° |
| 2026-04-30 21:50 | 38.93611 | -77.35710 | 3074 ft | 275 kts | 184° |
| 2026-04-30 21:50 | 38.91707 | -77.35705 | 2983 ft | 274 kts | 183° |
| 2026-04-30 21:50 | 38.89793 | -77.35723 | 2924 ft | 275 kts | 184° |
| 2026-04-30 21:50 | 38.87887 | -77.35760 | 2821 ft | 273 kts | 185° |
| 2026-04-30 21:51 | 38.85995 | -77.35799 | 2766 ft | 272 kts | 185° |
| 2026-04-30 21:51 | 38.84108 | -77.35840 | 2672 ft | 271 kts | 184° |
| 2026-04-30 21:51 | 38.82244 | -77.35880 | 2601 ft | 271 kts | 185° |
| 2026-04-30 21:51 | 38.80368 | -77.35919 | 2528 ft | 269 kts | 185° |
| 2026-04-30 21:52 | 38.78498 | -77.35957 | 2507 ft | 268 kts | 185° |
| 2026-04-30 21:52 | 38.76626 | -77.35997 | 2501 ft | 270 kts | 185° |
| 2026-04-30 21:52 | 38.74744 | -77.36038 | 2505 ft | 271 kts | 185° |
| 2026-04-30 21:52 | 38.72856 | -77.36080 | 2508 ft | 271 kts | 184° |
| 2026-04-30 21:53 | 38.70994 | -77.36314 | 2500 ft | 267 kts | 199° |
| 2026-04-30 21:53 | 38.69394 | -77.37382 | 2501 ft | 255 kts | 226° |
| 2026-04-30 21:53 | 38.68417 | -77.39204 | 2507 ft | 246 kts | 254° |
| 2026-04-30 21:53 | 38.68359 | -77.41314 | 2501 ft | 238 kts | 289° |
| 2026-04-30 21:54 | 38.69321 | -77.42989 | 2510 ft | 239 kts | 325° |
| 2026-04-30 21:54 | 38.70827 | -77.43789 | 2501 ft | 230 kts | 344° |
| 2026-04-30 21:54 | 38.72386 | -77.43981 | 2497 ft | 220 kts | 356° |
| 2026-04-30 21:54 | 38.73870 | -77.43932 | 2500 ft | 208 kts | 356° |
| 2026-04-30 21:55 | 38.75291 | -77.43710 | 2499 ft | 206 kts | 7° |
| 2026-04-30 21:55 | 38.76667 | -77.43192 | 2503 ft | 210 kts | 25° |
| 2026-04-30 21:55 | 38.77989 | -77.42636 | 2337 ft | 201 kts | 346° |
| 2026-04-30 21:55 | 38.79210 | -77.43419 | 2059 ft | 197 kts | 327° |
| 2026-04-30 21:56 | 38.80538 | -77.43806 | 2081 ft | 200 kts | 355° |
| 2026-04-30 21:56 | 38.81918 | -77.43751 | 2048 ft | 195 kts | 358° |
| 2026-04-30 21:56 | 38.83223 | -77.43698 | 1933 ft | 180 kts | 355° |
| 2026-04-30 21:56 | 38.84424 | -77.43693 | 1801 ft | 165 kts | 355° |
| 2026-04-30 21:57 | 38.85522 | -77.43719 | 1656 ft | 149 kts | 352° |
| 2026-04-30 21:57 | 38.86496 | -77.43713 | 1518 ft | 131 kts | 353° |
| 2026-04-30 21:57 | 38.87360 | -77.43698 | 1469 ft | 122 kts | 354° |
| 2026-04-30 21:57 | 38.88219 | -77.43691 | 1303 ft | 126 kts | 354° |
| 2026-04-30 21:58 | 38.89093 | -77.43678 | 1022 ft | 124 kts | 355° |
| 2026-04-30 21:58 | 38.89940 | -77.43668 | 841 ft | 122 kts | 354° |
| 2026-04-30 21:58 | 38.90792 | -77.43663 | 658 ft | 121 kts | 352° |
| 2026-04-30 21:58 | 38.91629 | -77.43657 | 482 ft | 120 kts | 355° |
| 2026-04-30 21:59 | 38.92466 | -77.43637 | 328 ft | 121 kts | 355° |
| 2026-04-30 21:59 | 38.93232 | -77.43634 | 305 ft | 94 kts | 0° |
| 2026-04-30 21:59 | 38.93783 | -77.43624 | 300 ft | 64 kts | 0° |
| 2026-04-30 22:00 | 38.94373 | -77.43644 | 301 ft | 28 kts | 345° |
| 2026-04-30 22:00 | 38.94565 | -77.43759 | 301 ft | 5 kts | 332° |
| 2026-04-30 22:00 | 38.94602 | -77.43783 | 300 ft | 7 kts | 332° |
| 2026-04-30 22:01 | 38.94641 | -77.43836 | 299 ft | 9 kts | 291° |
| 2026-04-30 22:01 | 38.94648 | -77.43915 | 295 ft | 9 kts | 272° |
| 2026-04-30 22:01 | 38.94651 | -77.43992 | 301 ft | 8 kts | 272° |
| 2026-04-30 22:01 | 38.94653 | -77.44060 | 302 ft | 7 kts | 272° |
| 2026-04-30 22:02 | 38.94655 | -77.44112 | 303 ft | 5 kts | 272° |
| 2026-04-30 22:02 | 38.94656 | -77.44155 | 302 ft | 6 kts | 271° |
| 2026-04-30 22:02 | 38.94657 | -77.44226 | 302 ft | 10 kts | 271° |
| 2026-04-30 22:02 | 38.94658 | -77.44328 | 304 ft | 13 kts | 270° |
| 2026-04-30 22:03 | 38.94659 | -77.44462 | 306 ft | 17 kts | 271° |
| 2026-04-30 22:03 | 38.94658 | -77.44556 | 308 ft | 5 kts | 259° |
| 2026-04-30 22:03 | 38.94642 | -77.44575 | 312 ft | 3 kts | 211° |
| 2026-04-30 22:03 | 38.94628 | -77.44577 | 311 ft | 1 kts | 182° |
| 2026-04-30 22:04 | 38.94610 | -77.44577 | 312 ft | 5 kts | 182° |
| 2026-04-30 22:04 | 38.94590 | -77.44580 | 310 ft | 0 kts | 188° |
| 2026-04-30 22:04 | 38.94581 | -77.44581 | 312 ft | 0 kts | 183° |